CDT,Max TemperatureF,Mean TemperatureF,Min TemperatureF,Max Dew PointF,MeanDew PointF,Min DewpointF,Max Humidity, Mean Humidity, Min Humidity, Max Sea Level PressureIn, Mean Sea Level PressureIn, Min Sea Level PressureIn, Max VisibilityMiles, Mean VisibilityMiles, Min VisibilityMiles, Max Wind SpeedMPH, Mean Wind SpeedMPH, Max Gust SpeedMPH,PrecipitationIn, CloudCover, Events, WindDirDegrees
2013-10-1,69,58,48,50,39,27,88,56,21,29.85,29.67,29.54,10,10,10,18,5,29,0.01,1,Rain,224
2013-10-2,66,54,42,45,35,28,93,55,26,30.07,29.99,29.86,10,10,7,10,5,22,0.03,2,Rain,267
2013-10-3,57,52,46,46,44,39,93,78,63,30.10,30.03,30.00,10,10,10,12,4,17,0.02,5,Rain,41
2013-10-4,55,50,44,43,39,36,87,72,54,30.20,30.16,30.09,10,10,10,16,9,23,0.05,7,Rain,24
2013-10-5,44,42,39,39,37,36,93,86,71,30.17,30.03,29.84,10,6,1,22,15,32,0.53,8,Rain,44
2013-10-6,48,44,39,43,39,36,93,85,76,29.83,29.71,29.66,10,7,1,17,11,25,0.74,7,Rain,347
2013-10-7,55,42,30,36,34,27,93,74,47,29.96,29.82,29.70,10,10,10,15,5,26,0.00,2,,293
2013-10-8,62,45,28,43,37,27,93,66,45,29.98,29.92,29.83,10,10,10,13,4,21,0.00,0,,163
2013-10-9,64,55,46,46,44,41,87,62,49,30.08,30.00,29.90,10,10,10,14,7,21,0.00,0,,199
2013-10-10,66,54,41,48,42,37,93,67,43,30.09,30.06,30.03,10,9,0,7,2,,0.00,0,Fog,122
2013-10-11,62,55,48,50,46,41,82,70,59,30.04,29.95,29.80,10,10,10,15,6,25,0.00,1,Rain-Thunderstorm,107
2013-10-12,57,50,44,48,43,39,93,74,58,29.93,29.80,29.71,10,10,5,18,11,29,0.00,5,,185
2013-10-13,51,43,30,39,31,25,87,64,38,30.38,30.24,29.95,10,10,4,12,8,24,0.00,2,,271
2013-10-14,48,36,24,39,31,21,93,75,46,30.41,30.35,30.21,10,10,5,12,2,,0.14,2,Rain,71
2013-10-15,41,39,37,37,36,34,93,88,81,30.23,29.97,29.83,10,8,2,21,11,28,0.51,7,Rain,26
2013-10-16,48,38,28,34,31,27,93,75,43,29.85,29.83,29.81,10,10,5,17,9,25,0.00,3,,329
2013-10-17,42,34,26,39,33,25,93,88,81,29.80,29.77,29.76,10,9,5,9,2,,0.25,5,Rain,331
2013-10-18,44,36,28,34,28,21,93,72,42,29.85,29.80,29.76,10,10,10,13,7,20,0.00,6,,313
2013-10-19,41,34,26,30,28,25,93,83,65,29.75,29.67,29.63,10,10,1,6,2,,0.02,5,Rain-Snow,336
2013-10-20,39,34,28,34,27,21,93,84,52,29.71,29.69,29.66,10,6,0,6,3,,0.05,5,Fog-Rain-Snow,321
2013-10-21,32,29,26,28,24,21,93,82,69,29.73,29.65,29.60,10,6,1,17,8,31,0.01,8,Snow,289
2013-10-22,33,28,24,25,21,16,86,72,56,29.92,29.87,29.73,10,10,2,17,10,26,0.00,6,Snow,310
2013-10-23,30,27,24,25,20,18,93,73,64,29.92,29.86,29.83,10,10,1,14,8,25,0.00,6,Snow,302
2013-10-24,37,32,26,25,22,19,93,72,48,30.15,30.05,29.93,10,9,2,14,7,23,0.00,5,Snow,295
2013-10-25,37,32,26,34,26,21,93,78,56,30.16,29.88,29.54,10,10,5,20,7,32,0.04,4,Rain-Snow,237
2013-10-26,37,34,30,30,23,19,86,68,52,29.96,29.82,29.53,10,9,1,20,10,33,0.00,6,Rain-Snow,311
2013-10-27,37,29,21,27,23,10,86,73,59,30.24,29.88,29.73,10,9,2,24,6,29,0.00,6,Snow,281
2013-10-28,33,24,14,18,10,3,86,62,28,30.48,30.40,30.26,10,10,10,14,6,22,0.00,0,,333
2013-10-29,33,20,8,23,15,3,92,74,52,30.42,30.28,30.12,10,10,10,9,3,,0.00,1,,209
2013-10-30,39,30,23,36,27,18,93,83,64,30.12,29.94,29.67,10,7,0,8,3,,0.06,8,Fog-Rain,102
2013-10-31,44,40,37,43,37,34,93,89,87,29.65,29.44,29.28,10,5,0,14,3,18,0.02,8,Fog-Rain,330